sensor_id;sensor_type;location;lat;lon;timestamp;temperature;humidity
46732;DHT22;32477;51.474;5.696;2022-11-15T00:01:52;8.70;99.90
46732;DHT22;32477;51.474;5.696;2022-11-15T00:04:18;8.70;99.90
46732;DHT22;32477;51.474;5.696;2022-11-15T00:06:43;8.70;99.90
46732;DHT22;32477;51.474;5.696;2022-11-15T00:09:09;8.70;99.90
46732;DHT22;32477;51.474;5.696;2022-11-15T00:11:35;8.80;99.90
46732;DHT22;32477;51.474;5.696;2022-11-15T00:14:00;8.90;99.90
46732;DHT22;32477;51.474;5.696;2022-11-15T00:16:27;8.90;99.90
46732;DHT22;32477;51.474;5.696;2022-11-15T00:18:53;9.00;99.90
46732;DHT22;32477;51.474;5.696;2022-11-15T00:21:19;9.00;99.90
46732;DHT22;32477;51.474;5.696;2022-11-15T00:23:45;9.00;99.90
46732;DHT22;32477;51.474;5.696;2022-11-15T00:26:13;9.10;99.90
46732;DHT22;32477;51.474;5.696;2022-11-15T00:28:39;9.10;99.90
46732;DHT22;32477;51.474;5.696;2022-11-15T00:31:07;9.10;99.90
46732;DHT22;32477;51.474;5.696;2022-11-15T00:33:33;9.20;99.90
46732;DHT22;32477;51.474;5.696;2022-11-15T00:36:03;9.20;99.90
46732;DHT22;32477;51.474;5.696;2022-11-15T00:38:34;9.30;99.90
46732;DHT22;32477;51.474;5.696;2022-11-15T00:41:00;9.30;99.90
46732;DHT22;32477;51.474;5.696;2022-11-15T00:43:26;9.30;99.90
46732;DHT22;32477;51.474;5.696;2022-11-15T00:45:52;9.30;99.90
46732;DHT22;32477;51.474;5.696;2022-11-15T00:48:18;9.30;99.90
46732;DHT22;32477;51.474;5.696;2022-11-15T00:50:44;9.30;99.90
46732;DHT22;32477;51.474;5.696;2022-11-15T00:53:10;9.30;99.90
46732;DHT22;32477;51.474;5.696;2022-11-15T00:55:36;9.30;99.90
46732;DHT22;32477;51.474;5.696;2022-11-15T00:58:01;9.40;99.90
46732;DHT22;32477;51.474;5.696;2022-11-15T01:00:27;9.40;99.90
46732;DHT22;32477;51.474;5.696;2022-11-15T01:02:53;9.50;99.90
46732;DHT22;32477;51.474;5.696;2022-11-15T01:05:19;9.50;99.90
46732;DHT22;32477;51.474;5.696;2022-11-15T01:07:45;9.50;99.90
46732;DHT22;32477;51.474;5.696;2022-11-15T01:10:11;9.50;99.90
46732;DHT22;32477;51.474;5.696;2022-11-15T01:12:37;9.50;99.90
46732;DHT22;32477;51.474;5.696;2022-11-15T01:15:04;9.60;99.90
46732;DHT22;32477;51.474;5.696;2022-11-15T01:17:30;9.50;99.90
46732;DHT22;32477;51.474;5.696;2022-11-15T01:19:56;9.60;99.90
46732;DHT22;32477;51.474;5.696;2022-11-15T01:22:21;9.60;99.90
46732;DHT22;32477;51.474;5.696;2022-11-15T01:24:49;9.70;99.90
46732;DHT22;32477;51.474;5.696;2022-11-15T01:27:15;9.70;99.90
46732;DHT22;32477;51.474;5.696;2022-11-15T01:29:41;9.70;99.90
46732;DHT22;32477;51.474;5.696;2022-11-15T01:32:06;9.70;99.90
46732;DHT22;32477;51.474;5.696;2022-11-15T01:34:32;9.80;99.90
46732;DHT22;32477;51.474;5.696;2022-11-15T01:36:58;9.80;99.90
46732;DHT22;32477;51.474;5.696;2022-11-15T01:39:24;9.80;99.90
46732;DHT22;32477;51.474;5.696;2022-11-15T01:41:50;9.80;99.90
46732;DHT22;32477;51.474;5.696;2022-11-15T01:44:37;9.80;99.90
46732;DHT22;32477;51.474;5.696;2022-11-15T01:47:39;9.80;99.90
46732;DHT22;32477;51.474;5.696;2022-11-15T01:50:12;9.80;99.90
46732;DHT22;32477;51.474;5.696;2022-11-15T01:52:39;9.90;99.90
46732;DHT22;32477;51.474;5.696;2022-11-15T01:55:13;9.80;99.90
46732;DHT22;32477;51.474;5.696;2022-11-15T01:57:41;9.90;99.90
46732;DHT22;32477;51.474;5.696;2022-11-15T02:00:08;9.90;99.90
46732;DHT22;32477;51.474;5.696;2022-11-15T02:02:36;9.90;99.90
46732;DHT22;32477;51.474;5.696;2022-11-15T02:05:02;9.90;99.90
46732;DHT22;32477;51.474;5.696;2022-11-15T02:07:28;9.90;99.90
46732;DHT22;32477;51.474;5.696;2022-11-15T02:09:55;9.90;99.90
46732;DHT22;32477;51.474;5.696;2022-11-15T02:12:23;10.00;99.90
46732;DHT22;32477;51.474;5.696;2022-11-15T02:14:52;10.00;99.90
46732;DHT22;32477;51.474;5.696;2022-11-15T02:17:26;10.10;99.90
46732;DHT22;32477;51.474;5.696;2022-11-15T02:29:01;10.30;99.90
46732;DHT22;32477;51.474;5.696;2022-11-15T02:37:26;10.50;99.90
46732;DHT22;32477;51.474;5.696;2022-11-15T02:42:25;10.60;99.90
46732;DHT22;32477;51.474;5.696;2022-11-15T02:45:13;10.60;99.90
46732;DHT22;32477;51.474;5.696;2022-11-15T02:47:43;10.60;99.90
46732;DHT22;32477;51.474;5.696;2022-11-15T02:50:13;10.70;99.90
46732;DHT22;32477;51.474;5.696;2022-11-15T02:52:41;10.70;99.90
46732;DHT22;32477;51.474;5.696;2022-11-15T02:55:41;10.70;99.90
46732;DHT22;32477;51.474;5.696;2022-11-15T03:07:30;10.80;99.90
46732;DHT22;32477;51.474;5.696;2022-11-15T03:12:42;10.90;99.90
46732;DHT22;32477;51.474;5.696;2022-11-15T03:15:21;10.80;99.90
46732;DHT22;32477;51.474;5.696;2022-11-15T03:18:05;10.80;99.90
46732;DHT22;32477;51.474;5.696;2022-11-15T03:20:34;10.90;99.90
46732;DHT22;32477;51.474;5.696;2022-11-15T03:23:10;11.00;99.90
46732;DHT22;32477;51.474;5.696;2022-11-15T03:25:40;10.90;99.90
46732;DHT22;32477;51.474;5.696;2022-11-15T03:28:12;10.90;99.90
46732;DHT22;32477;51.474;5.696;2022-11-15T03:30:39;11.00;99.90
46732;DHT22;32477;51.474;5.696;2022-11-15T03:33:06;11.00;99.90
46732;DHT22;32477;51.474;5.696;2022-11-15T03:35:38;11.00;99.90
46732;DHT22;32477;51.474;5.696;2022-11-15T03:38:11;11.10;99.90
46732;DHT22;32477;51.474;5.696;2022-11-15T03:40:40;11.10;99.90
46732;DHT22;32477;51.474;5.696;2022-11-15T03:43:15;11.00;99.90
46732;DHT22;32477;51.474;5.696;2022-11-15T03:46:01;11.00;99.90
46732;DHT22;32477;51.474;5.696;2022-11-15T03:48:33;11.10;99.90
46732;DHT22;32477;51.474;5.696;2022-11-15T03:51:02;11.10;99.90
46732;DHT22;32477;51.474;5.696;2022-11-15T03:53:28;11.10;99.90
46732;DHT22;32477;51.474;5.696;2022-11-15T03:55:54;11.10;99.90
46732;DHT22;32477;51.474;5.696;2022-11-15T03:58:19;11.00;99.90
46732;DHT22;32477;51.474;5.696;2022-11-15T04:00:45;11.00;99.90
46732;DHT22;32477;51.474;5.696;2022-11-15T04:03:11;11.00;99.90
46732;DHT22;32477;51.474;5.696;2022-11-15T04:05:36;11.10;99.90
46732;DHT22;32477;51.474;5.696;2022-11-15T04:08:02;11.10;99.90
46732;DHT22;32477;51.474;5.696;2022-11-15T04:10:31;11.10;99.90
46732;DHT22;32477;51.474;5.696;2022-11-15T04:12:57;11.10;99.90
46732;DHT22;32477;51.474;5.696;2022-11-15T04:15:23;11.10;99.90
46732;DHT22;32477;51.474;5.696;2022-11-15T04:17:51;11.10;99.90
46732;DHT22;32477;51.474;5.696;2022-11-15T04:20:21;11.10;99.90
46732;DHT22;32477;51.474;5.696;2022-11-15T04:23:09;11.10;99.90
46732;DHT22;32477;51.474;5.696;2022-11-15T04:25:55;11.10;99.90
46732;DHT22;32477;51.474;5.696;2022-11-15T04:28:22;11.10;99.90
46732;DHT22;32477;51.474;5.696;2022-11-15T04:30:48;11.10;99.90
46732;DHT22;32477;51.474;5.696;2022-11-15T04:33:14;11.10;99.90
46732;DHT22;32477;51.474;5.696;2022-11-15T04:35:40;11.20;99.90
46732;DHT22;32477;51.474;5.696;2022-11-15T04:38:07;11.20;99.90
46732;DHT22;32477;51.474;5.696;2022-11-15T04:40:34;11.20;99.90
46732;DHT22;32477;51.474;5.696;2022-11-15T04:43:00;11.10;99.90
46732;DHT22;32477;51.474;5.696;2022-11-15T04:45:26;11.20;99.90
46732;DHT22;32477;51.474;5.696;2022-11-15T04:47:52;11.10;99.90
46732;DHT22;32477;51.474;5.696;2022-11-15T04:50:18;11.10;99.90
46732;DHT22;32477;51.474;5.696;2022-11-15T04:52:51;11.10;99.90
46732;DHT22;32477;51.474;5.696;2022-11-15T04:55:17;11.10;99.90
46732;DHT22;32477;51.474;5.696;2022-11-15T04:57:43;11.10;99.90
46732;DHT22;32477;51.474;5.696;2022-11-15T05:00:11;11.10;99.90
46732;DHT22;32477;51.474;5.696;2022-11-15T05:02:38;11.10;99.90
46732;DHT22;32477;51.474;5.696;2022-11-15T05:05:23;11.10;99.90
46732;DHT22;32477;51.474;5.696;2022-11-15T05:07:49;11.10;99.90
46732;DHT22;32477;51.474;5.696;2022-11-15T05:10:15;11.10;99.90
46732;DHT22;32477;51.474;5.696;2022-11-15T05:12:41;11.10;99.90
46732;DHT22;32477;51.474;5.696;2022-11-15T05:15:07;11.10;99.90
46732;DHT22;32477;51.474;5.696;2022-11-15T05:17:33;11.10;99.90
46732;DHT22;32477;51.474;5.696;2022-11-15T05:19:59;11.10;99.90
46732;DHT22;32477;51.474;5.696;2022-11-15T05:22:24;11.10;99.90
46732;DHT22;32477;51.474;5.696;2022-11-15T05:24:50;11.00;99.90
46732;DHT22;32477;51.474;5.696;2022-11-15T05:27:16;11.00;99.90
46732;DHT22;32477;51.474;5.696;2022-11-15T05:29:41;11.00;99.90
46732;DHT22;32477;51.474;5.696;2022-11-15T05:32:09;11.10;99.90
46732;DHT22;32477;51.474;5.696;2022-11-15T05:34:35;11.10;99.90
46732;DHT22;32477;51.474;5.696;2022-11-15T05:37:01;11.10;99.90
46732;DHT22;32477;51.474;5.696;2022-11-15T05:39:28;11.10;99.90
46732;DHT22;32477;51.474;5.696;2022-11-15T05:41:57;11.00;99.90
46732;DHT22;32477;51.474;5.696;2022-11-15T05:44:24;11.10;99.90
46732;DHT22;32477;51.474;5.696;2022-11-15T05:46:54;11.10;99.90
46732;DHT22;32477;51.474;5.696;2022-11-15T05:49:23;11.10;99.90
46732;DHT22;32477;51.474;5.696;2022-11-15T05:51:51;11.10;99.90
46732;DHT22;32477;51.474;5.696;2022-11-15T05:54:17;11.10;99.90
46732;DHT22;32477;51.474;5.696;2022-11-15T05:56:45;11.10;99.90
46732;DHT22;32477;51.474;5.696;2022-11-15T05:59:11;11.10;99.90
46732;DHT22;32477;51.474;5.696;2022-11-15T06:01:38;11.10;99.90
46732;DHT22;32477;51.474;5.696;2022-11-15T06:04:04;11.10;99.90
46732;DHT22;32477;51.474;5.696;2022-11-15T06:06:30;11.10;99.90
46732;DHT22;32477;51.474;5.696;2022-11-15T06:08:55;11.10;99.90
46732;DHT22;32477;51.474;5.696;2022-11-15T06:11:21;11.10;99.90
46732;DHT22;32477;51.474;5.696;2022-11-15T06:13:47;11.10;99.90
46732;DHT22;32477;51.474;5.696;2022-11-15T06:16:13;11.10;99.90
46732;DHT22;32477;51.474;5.696;2022-11-15T06:18:39;11.00;99.90
46732;DHT22;32477;51.474;5.696;2022-11-15T06:21:05;11.00;99.90
46732;DHT22;32477;51.474;5.696;2022-11-15T06:23:35;11.20;99.90
46732;DHT22;32477;51.474;5.696;2022-11-15T06:26:01;11.20;99.90
46732;DHT22;32477;51.474;5.696;2022-11-15T06:28:31;11.20;99.90
46732;DHT22;32477;51.474;5.696;2022-11-15T06:31:09;11.20;99.90
46732;DHT22;32477;51.474;5.696;2022-11-15T06:33:35;11.20;99.90
46732;DHT22;32477;51.474;5.696;2022-11-15T06:36:05;11.20;99.90
46732;DHT22;32477;51.474;5.696;2022-11-15T06:38:35;11.20;99.90
46732;DHT22;32477;51.474;5.696;2022-11-15T06:41:09;11.20;99.90
46732;DHT22;32477;51.474;5.696;2022-11-15T06:43:36;11.20;99.90
46732;DHT22;32477;51.474;5.696;2022-11-15T06:46:03;11.20;99.90
46732;DHT22;32477;51.474;5.696;2022-11-15T06:48:30;11.20;99.90
46732;DHT22;32477;51.474;5.696;2022-11-15T06:51:00;11.10;99.90
46732;DHT22;32477;51.474;5.696;2022-11-15T06:53:27;11.10;99.90
46732;DHT22;32477;51.474;5.696;2022-11-15T06:55:57;11.10;99.90
46732;DHT22;32477;51.474;5.696;2022-11-15T06:58:23;11.10;99.90
46732;DHT22;32477;51.474;5.696;2022-11-15T07:00:49;11.10;99.90
46732;DHT22;32477;51.474;5.696;2022-11-15T07:03:14;11.10;99.90
46732;DHT22;32477;51.474;5.696;2022-11-15T07:05:40;11.00;99.90
46732;DHT22;32477;51.474;5.696;2022-11-15T07:08:06;11.00;99.90
46732;DHT22;32477;51.474;5.696;2022-11-15T07:10:32;11.00;99.90
46732;DHT22;32477;51.474;5.696;2022-11-15T07:12:57;10.90;99.90
46732;DHT22;32477;51.474;5.696;2022-11-15T07:15:25;11.00;99.90
46732;DHT22;32477;51.474;5.696;2022-11-15T07:17:51;10.90;99.90
46732;DHT22;32477;51.474;5.696;2022-11-15T07:20:18;10.90;99.90
46732;DHT22;32477;51.474;5.696;2022-11-15T07:22:44;10.90;99.90
46732;DHT22;32477;51.474;5.696;2022-11-15T07:25:13;10.90;99.90
46732;DHT22;32477;51.474;5.696;2022-11-15T07:27:39;10.90;99.90
46732;DHT22;32477;51.474;5.696;2022-11-15T07:30:05;10.90;99.90
46732;DHT22;32477;51.474;5.696;2022-11-15T07:32:34;10.90;99.90
46732;DHT22;32477;51.474;5.696;2022-11-15T07:35:03;10.90;99.90
46732;DHT22;32477;51.474;5.696;2022-11-15T07:37:29;10.90;99.90
46732;DHT22;32477;51.474;5.696;2022-11-15T07:39:55;10.80;99.90
46732;DHT22;32477;51.474;5.696;2022-11-15T07:42:21;10.90;99.90
46732;DHT22;32477;51.474;5.696;2022-11-15T07:45:05;10.80;99.90
46732;DHT22;32477;51.474;5.696;2022-11-15T07:47:31;10.90;99.90
46732;DHT22;32477;51.474;5.696;2022-11-15T07:49:57;10.90;99.90
46732;DHT22;32477;51.474;5.696;2022-11-15T07:52:23;10.90;99.90
46732;DHT22;32477;51.474;5.696;2022-11-15T07:54:51;10.90;99.90
46732;DHT22;32477;51.474;5.696;2022-11-15T07:57:20;10.90;99.90
46732;DHT22;32477;51.474;5.696;2022-11-15T07:59:48;11.00;99.90
46732;DHT22;32477;51.474;5.696;2022-11-15T08:02:14;11.00;99.90
46732;DHT22;32477;51.474;5.696;2022-11-15T08:04:43;11.00;99.90
46732;DHT22;32477;51.474;5.696;2022-11-15T08:07:09;11.00;99.90
46732;DHT22;32477;51.474;5.696;2022-11-15T08:09:35;11.00;99.90
46732;DHT22;32477;51.474;5.696;2022-11-15T08:12:00;11.10;99.90
46732;DHT22;32477;51.474;5.696;2022-11-15T08:14:26;11.10;99.90
46732;DHT22;32477;51.474;5.696;2022-11-15T08:16:52;11.20;99.90
46732;DHT22;32477;51.474;5.696;2022-11-15T08:19:18;11.20;99.90
46732;DHT22;32477;51.474;5.696;2022-11-15T08:21:43;11.20;99.90
46732;DHT22;32477;51.474;5.696;2022-11-15T08:24:10;11.30;99.90
46732;DHT22;32477;51.474;5.696;2022-11-15T08:26:36;11.30;99.90
46732;DHT22;32477;51.474;5.696;2022-11-15T08:29:02;11.20;99.90
46732;DHT22;32477;51.474;5.696;2022-11-15T08:31:28;11.20;99.90
46732;DHT22;32477;51.474;5.696;2022-11-15T08:33:54;11.20;99.90
46732;DHT22;32477;51.474;5.696;2022-11-15T08:36:20;11.10;99.90
46732;DHT22;32477;51.474;5.696;2022-11-15T08:38:45;11.10;99.90
46732;DHT22;32477;51.474;5.696;2022-11-15T08:41:14;11.10;99.90
46732;DHT22;32477;51.474;5.696;2022-11-15T08:43:44;11.20;99.90
46732;DHT22;32477;51.474;5.696;2022-11-15T08:46:12;11.10;99.90
46732;DHT22;32477;51.474;5.696;2022-11-15T08:48:38;11.20;99.90
46732;DHT22;32477;51.474;5.696;2022-11-15T08:51:05;11.20;99.90
46732;DHT22;32477;51.474;5.696;2022-11-15T08:53:31;11.20;99.90
46732;DHT22;32477;51.474;5.696;2022-11-15T08:55:56;11.30;99.90
46732;DHT22;32477;51.474;5.696;2022-11-15T08:58:22;11.40;99.90
46732;DHT22;32477;51.474;5.696;2022-11-15T09:00:48;11.50;99.90
46732;DHT22;32477;51.474;5.696;2022-11-15T09:03:14;11.60;99.90
46732;DHT22;32477;51.474;5.696;2022-11-15T09:05:40;11.60;99.90
46732;DHT22;32477;51.474;5.696;2022-11-15T09:08:09;11.50;99.90
46732;DHT22;32477;51.474;5.696;2022-11-15T09:10:34;11.60;99.90
46732;DHT22;32477;51.474;5.696;2022-11-15T09:13:00;11.70;99.90
46732;DHT22;32477;51.474;5.696;2022-11-15T09:15:26;11.90;99.90
46732;DHT22;32477;51.474;5.696;2022-11-15T09:17:52;12.00;99.90
46732;DHT22;32477;51.474;5.696;2022-11-15T09:20:21;12.10;99.90
46732;DHT22;32477;51.474;5.696;2022-11-15T09:22:46;12.10;99.90
46732;DHT22;32477;51.474;5.696;2022-11-15T09:25:12;12.20;99.90
46732;DHT22;32477;51.474;5.696;2022-11-15T09:27:38;12.20;99.90
46732;DHT22;32477;51.474;5.696;2022-11-15T09:30:04;12.20;99.90
46732;DHT22;32477;51.474;5.696;2022-11-15T09:32:30;12.00;99.90
46732;DHT22;32477;51.474;5.696;2022-11-15T09:34:56;12.00;99.90
46732;DHT22;32477;51.474;5.696;2022-11-15T09:37:22;12.20;99.90
46732;DHT22;32477;51.474;5.696;2022-11-15T09:39:48;12.40;99.90
46732;DHT22;32477;51.474;5.696;2022-11-15T09:45:29;12.40;99.90
46732;DHT22;32477;51.474;5.696;2022-11-15T09:48:34;12.40;99.90
46732;DHT22;32477;51.474;5.696;2022-11-15T09:51:04;12.70;99.90
46732;DHT22;32477;51.474;5.696;2022-11-15T09:56:35;14.00;99.90
46732;DHT22;32477;51.474;5.696;2022-11-15T10:04:08;13.90;99.90
46732;DHT22;32477;51.474;5.696;2022-11-15T10:06:38;13.80;99.90
46732;DHT22;32477;51.474;5.696;2022-11-15T10:09:28;13.80;99.90
46732;DHT22;32477;51.474;5.696;2022-11-15T10:11:56;13.70;99.90
46732;DHT22;32477;51.474;5.696;2022-11-15T10:14:24;13.80;99.90
46732;DHT22;32477;51.474;5.696;2022-11-15T10:17:06;13.80;99.90
46732;DHT22;32477;51.474;5.696;2022-11-15T10:22:46;14.00;99.90
46732;DHT22;32477;51.474;5.696;2022-11-15T10:25:17;14.20;99.90
46732;DHT22;32477;51.474;5.696;2022-11-15T10:27:45;14.40;99.90
46732;DHT22;32477;51.474;5.696;2022-11-15T10:30:16;14.30;99.90
46732;DHT22;32477;51.474;5.696;2022-11-15T10:32:44;14.30;99.90
46732;DHT22;32477;51.474;5.696;2022-11-15T10:35:28;14.40;99.90
46732;DHT22;32477;51.474;5.696;2022-11-15T10:38:09;13.90;99.90
46732;DHT22;32477;51.474;5.696;2022-11-15T10:40:36;13.50;99.90
46732;DHT22;32477;51.474;5.696;2022-11-15T10:43:16;13.30;99.90
46732;DHT22;32477;51.474;5.696;2022-11-15T10:45:42;13.00;99.90
46732;DHT22;32477;51.474;5.696;2022-11-15T10:50:38;12.90;99.90
46732;DHT22;32477;51.474;5.696;2022-11-15T10:53:10;13.00;99.90
46732;DHT22;32477;51.474;5.696;2022-11-15T10:55:40;13.00;99.90
46732;DHT22;32477;51.474;5.696;2022-11-15T10:58:21;13.00;99.90
46732;DHT22;32477;51.474;5.696;2022-11-15T11:00:47;12.90;99.90
46732;DHT22;32477;51.474;5.696;2022-11-15T11:03:29;12.90;99.90
46732;DHT22;32477;51.474;5.696;2022-11-15T11:06:14;13.00;99.90
46732;DHT22;32477;51.474;5.696;2022-11-15T11:08:41;12.90;99.90
46732;DHT22;32477;51.474;5.696;2022-11-15T11:11:18;12.90;99.90
46732;DHT22;32477;51.474;5.696;2022-11-15T11:13:44;12.90;99.90
46732;DHT22;32477;51.474;5.696;2022-11-15T11:16:43;13.10;99.90
46732;DHT22;32477;51.474;5.696;2022-11-15T11:25:44;14.10;99.90
46732;DHT22;32477;51.474;5.696;2022-11-15T11:49:24;15.40;99.90
46732;DHT22;32477;51.474;5.696;2022-11-15T11:52:11;15.50;99.90
46732;DHT22;32477;51.474;5.696;2022-11-15T11:54:55;15.60;99.90
46732;DHT22;32477;51.474;5.696;2022-11-15T11:57:34;15.50;99.90
46732;DHT22;32477;51.474;5.696;2022-11-15T12:03:02;15.10;99.90
46732;DHT22;32477;51.474;5.696;2022-11-15T12:05:35;15.50;99.90
46732;DHT22;32477;51.474;5.696;2022-11-15T12:10:54;16.30;99.90
46732;DHT22;32477;51.474;5.696;2022-11-15T12:13:28;16.10;99.90
46732;DHT22;32477;51.474;5.696;2022-11-15T12:19:05;15.50;99.90
46732;DHT22;32477;51.474;5.696;2022-11-15T12:24:39;15.40;99.90
46732;DHT22;32477;51.474;5.696;2022-11-15T12:27:41;15.50;99.90
46732;DHT22;32477;51.474;5.696;2022-11-15T12:30:12;15.50;99.90
46732;DHT22;32477;51.474;5.696;2022-11-15T12:32:54;15.10;99.90
46732;DHT22;32477;51.474;5.696;2022-11-15T12:35:31;15.00;99.90
46732;DHT22;32477;51.474;5.696;2022-11-15T12:37:59;15.10;99.90
46732;DHT22;32477;51.474;5.696;2022-11-15T12:40:37;14.90;99.90
46732;DHT22;32477;51.474;5.696;2022-11-15T12:45:43;14.90;99.90
46732;DHT22;32477;51.474;5.696;2022-11-15T13:06:49;14.20;99.90
46732;DHT22;32477;51.474;5.696;2022-11-15T13:14:54;14.10;99.90
46732;DHT22;32477;51.474;5.696;2022-11-15T13:19:52;14.00;99.90
46732;DHT22;32477;51.474;5.696;2022-11-15T13:22:18;13.80;99.90
46732;DHT22;32477;51.474;5.696;2022-11-15T13:25:03;13.70;99.90
46732;DHT22;32477;51.474;5.696;2022-11-15T13:27:29;13.60;99.90
46732;DHT22;32477;51.474;5.696;2022-11-15T13:29:56;13.50;99.90
46732;DHT22;32477;51.474;5.696;2022-11-15T13:32:22;13.50;99.90
46732;DHT22;32477;51.474;5.696;2022-11-15T13:34:49;13.50;99.90
46732;DHT22;32477;51.474;5.696;2022-11-15T13:39:48;13.50;99.90
46732;DHT22;32477;51.474;5.696;2022-11-15T13:42:19;13.50;99.90
46732;DHT22;32477;51.474;5.696;2022-11-15T13:45:00;13.50;99.90
46732;DHT22;32477;51.474;5.696;2022-11-15T13:47:27;13.50;99.90
46732;DHT22;32477;51.474;5.696;2022-11-15T13:49:53;13.50;99.90
46732;DHT22;32477;51.474;5.696;2022-11-15T13:52:19;13.40;99.90
46732;DHT22;32477;51.474;5.696;2022-11-15T13:55:02;13.40;99.90
46732;DHT22;32477;51.474;5.696;2022-11-15T13:57:35;13.40;99.90
46732;DHT22;32477;51.474;5.696;2022-11-15T14:00:06;13.30;99.90
46732;DHT22;32477;51.474;5.696;2022-11-15T14:02:36;13.30;99.90
46732;DHT22;32477;51.474;5.696;2022-11-15T14:05:25;13.20;99.90
46732;DHT22;32477;51.474;5.696;2022-11-15T14:07:57;13.10;99.90
46732;DHT22;32477;51.474;5.696;2022-11-15T14:10:29;13.00;99.90
46732;DHT22;32477;51.474;5.696;2022-11-15T14:12:56;13.00;99.90
46732;DHT22;32477;51.474;5.696;2022-11-15T14:15:32;12.90;99.90
46732;DHT22;32477;51.474;5.696;2022-11-15T14:18:01;12.90;99.90
46732;DHT22;32477;51.474;5.696;2022-11-15T14:20:36;12.80;99.90
46732;DHT22;32477;51.474;5.696;2022-11-15T14:23:24;12.80;99.90
46732;DHT22;32477;51.474;5.696;2022-11-15T14:25:55;12.80;99.90
46732;DHT22;32477;51.474;5.696;2022-11-15T14:30:51;12.80;99.90
46732;DHT22;32477;51.474;5.696;2022-11-15T14:33:22;12.80;99.90
46732;DHT22;32477;51.474;5.696;2022-11-15T14:35:49;12.80;99.90
46732;DHT22;32477;51.474;5.696;2022-11-15T14:38:15;12.80;99.90
46732;DHT22;32477;51.474;5.696;2022-11-15T14:40:41;12.80;99.90
46732;DHT22;32477;51.474;5.696;2022-11-15T14:43:10;12.80;99.90
46732;DHT22;32477;51.474;5.696;2022-11-15T14:45:37;12.80;99.90
46732;DHT22;32477;51.474;5.696;2022-11-15T14:48:03;12.80;99.90
46732;DHT22;32477;51.474;5.696;2022-11-15T14:50:28;12.90;99.90
46732;DHT22;32477;51.474;5.696;2022-11-15T14:52:54;12.90;99.90
46732;DHT22;32477;51.474;5.696;2022-11-15T14:55:24;12.80;99.90
46732;DHT22;32477;51.474;5.696;2022-11-15T14:57:50;12.80;99.90
46732;DHT22;32477;51.474;5.696;2022-11-15T15:00:18;12.80;99.90
46732;DHT22;32477;51.474;5.696;2022-11-15T15:02:45;12.80;99.90
46732;DHT22;32477;51.474;5.696;2022-11-15T15:05:23;12.80;99.90
46732;DHT22;32477;51.474;5.696;2022-11-15T15:07:50;12.70;99.90
46732;DHT22;32477;51.474;5.696;2022-11-15T15:10:17;12.70;99.90
46732;DHT22;32477;51.474;5.696;2022-11-15T15:12:43;12.70;99.90
46732;DHT22;32477;51.474;5.696;2022-11-15T15:15:18;12.70;99.90
46732;DHT22;32477;51.474;5.696;2022-11-15T15:17:45;12.60;99.90
46732;DHT22;32477;51.474;5.696;2022-11-15T15:20:10;12.60;99.90
46732;DHT22;32477;51.474;5.696;2022-11-15T15:22:37;12.60;99.90
46732;DHT22;32477;51.474;5.696;2022-11-15T15:25:07;12.60;99.90
46732;DHT22;32477;51.474;5.696;2022-11-15T15:27:36;12.60;99.90
46732;DHT22;32477;51.474;5.696;2022-11-15T15:30:01;12.60;99.90
46732;DHT22;32477;51.474;5.696;2022-11-15T15:32:27;12.60;99.90
46732;DHT22;32477;51.474;5.696;2022-11-15T15:34:53;12.60;99.90
46732;DHT22;32477;51.474;5.696;2022-11-15T15:37:25;12.50;99.90
46732;DHT22;32477;51.474;5.696;2022-11-15T15:39:52;12.50;99.90
46732;DHT22;32477;51.474;5.696;2022-11-15T15:42:19;12.40;99.90
46732;DHT22;32477;51.474;5.696;2022-11-15T15:44:46;12.40;99.90
46732;DHT22;32477;51.474;5.696;2022-11-15T15:47:13;12.40;99.90
46732;DHT22;32477;51.474;5.696;2022-11-15T15:49:41;12.40;99.90
46732;DHT22;32477;51.474;5.696;2022-11-15T15:52:06;12.30;99.90
46732;DHT22;32477;51.474;5.696;2022-11-15T15:54:32;12.30;99.90
46732;DHT22;32477;51.474;5.696;2022-11-15T15:56:58;12.30;99.90
46732;DHT22;32477;51.474;5.696;2022-11-15T15:59:23;12.30;99.90
46732;DHT22;32477;51.474;5.696;2022-11-15T16:01:49;12.30;99.90
46732;DHT22;32477;51.474;5.696;2022-11-15T16:04:15;12.30;99.90
46732;DHT22;32477;51.474;5.696;2022-11-15T16:06:41;12.30;99.90
46732;DHT22;32477;51.474;5.696;2022-11-15T16:09:18;12.30;99.90
46732;DHT22;32477;51.474;5.696;2022-11-15T16:11:45;12.30;99.90
46732;DHT22;32477;51.474;5.696;2022-11-15T16:14:11;12.20;99.90
46732;DHT22;32477;51.474;5.696;2022-11-15T16:16:37;12.20;99.90
46732;DHT22;32477;51.474;5.696;2022-11-15T16:19:03;12.30;99.90
46732;DHT22;32477;51.474;5.696;2022-11-15T16:21:29;12.30;99.90
46732;DHT22;32477;51.474;5.696;2022-11-15T16:23:55;12.30;99.90
46732;DHT22;32477;51.474;5.696;2022-11-15T16:26:26;12.40;99.90
46732;DHT22;32477;51.474;5.696;2022-11-15T16:28:52;12.40;99.90
46732;DHT22;32477;51.474;5.696;2022-11-15T16:31:18;12.30;99.90
46732;DHT22;32477;51.474;5.696;2022-11-15T16:33:47;12.20;99.90
46732;DHT22;32477;51.474;5.696;2022-11-15T16:36:22;12.00;99.90
46732;DHT22;32477;51.474;5.696;2022-11-15T16:38:48;11.90;99.90
46732;DHT22;32477;51.474;5.696;2022-11-15T16:41:14;11.80;99.90
46732;DHT22;32477;51.474;5.696;2022-11-15T16:43:47;11.70;99.90
46732;DHT22;32477;51.474;5.696;2022-11-15T16:48:43;11.60;99.90
46732;DHT22;32477;51.474;5.696;2022-11-15T16:51:09;11.50;99.90
46732;DHT22;32477;51.474;5.696;2022-11-15T16:53:35;11.40;99.90
46732;DHT22;32477;51.474;5.696;2022-11-15T16:56:01;11.30;99.90
46732;DHT22;32477;51.474;5.696;2022-11-15T16:58:27;11.20;99.90
46732;DHT22;32477;51.474;5.696;2022-11-15T17:00:54;11.20;99.90
46732;DHT22;32477;51.474;5.696;2022-11-15T17:03:22;11.20;99.90
46732;DHT22;32477;51.474;5.696;2022-11-15T17:05:48;11.10;99.90
46732;DHT22;32477;51.474;5.696;2022-11-15T17:08:13;11.10;99.90
46732;DHT22;32477;51.474;5.696;2022-11-15T17:10:39;11.00;99.90
46732;DHT22;32477;51.474;5.696;2022-11-15T17:13:11;11.00;99.90
46732;DHT22;32477;51.474;5.696;2022-11-15T17:15:37;11.00;99.90
46732;DHT22;32477;51.474;5.696;2022-11-15T17:18:03;11.00;99.90
46732;DHT22;32477;51.474;5.696;2022-11-15T17:20:29;11.00;99.90
46732;DHT22;32477;51.474;5.696;2022-11-15T17:22:55;11.00;99.90
46732;DHT22;32477;51.474;5.696;2022-11-15T17:25:20;11.00;99.90
46732;DHT22;32477;51.474;5.696;2022-11-15T17:27:46;11.00;99.90
46732;DHT22;32477;51.474;5.696;2022-11-15T17:30:13;11.00;99.90
46732;DHT22;32477;51.474;5.696;2022-11-15T17:32:43;11.10;99.90
46732;DHT22;32477;51.474;5.696;2022-11-15T17:35:10;11.10;99.90
46732;DHT22;32477;51.474;5.696;2022-11-15T17:37:36;11.10;99.90
46732;DHT22;32477;51.474;5.696;2022-11-15T17:40:02;11.00;99.90
46732;DHT22;32477;51.474;5.696;2022-11-15T17:42:28;11.00;99.90
46732;DHT22;32477;51.474;5.696;2022-11-15T17:44:54;11.00;99.90
46732;DHT22;32477;51.474;5.696;2022-11-15T17:47:19;11.00;99.90